Terminal Aerodrome Forecast
Issued by NWS

Home | Current Version | Previous Version | Text Only | Print | Product List | Glossary On
Versions: 1 2 3 4 5 6 7 8 9 10 11 12 13 14 15 16 17 18 19 20 21
000
FTUS45 KTFX 030500 RRA
TAFGTF
TAF
KGTF 030541Z 0306/0406 03012KT P6SM VCSH SCT020 BKN035
      TEMPO 0306/0308 5SM -SN BKN020
     FM030800 36008KT P6SM SCT030 BKN050
     FM031700 32007KT P6SM SCT060 BKN090
     FM040200 22007KT P6SM BKN120=

USA.gov is the U.S. government's official web portal to all federal, state and local government web resources and services.